Time;durP1;ratioP1;P1;durP2;ratioP2;P2;SDS_P1;SDS_P2;PMS_P1;PMS_P2;Temp;Humidity;BMP_temperature;BMP_pressure;BME280_temperature;BME280_humidity;BME280_pressure;Samples;Min_cycle;Max_cycle;Signal;HPM_P1;HPM_P2
2023/03/10 00:00:00;;;;;;;4.68;2.30;;;10.20;99.90;;;;;;5059461;28;20041;-58
2023/03/10 00:02:29;;;;;;;3.78;2.45;;;10.10;99.90;;;;;;5059718;28;20058;-59
2023/03/10 00:04:55;;;;;;;5.22;2.70;;;10.10;99.90;;;;;;5059366;28;20029;-58
2023/03/10 00:07:21;;;;;;;7.57;4.00;;;10.10;99.90;;;;;;5059339;28;20033;-58
2023/03/10 00:09:47;;;;;;;5.55;4.20;;;10.10;99.90;;;;;;5059828;28;20065;-59
2023/03/10 00:12:13;;;;;;;5.05;3.55;;;10.10;99.90;;;;;;5059600;28;20052;-59
2023/03/10 00:14:39;;;;;;;3.38;2.67;;;10.20;99.90;;;;;;5059252;28;20274;-59
2023/03/10 00:17:05;;;;;;;5.50;3.53;;;10.10;99.90;;;;;;5059174;28;20105;-59
2023/03/10 00:19:31;;;;;;;4.60;3.10;;;10.20;99.90;;;;;;5059122;28;20025;-58
2023/03/10 00:21:57;;;;;;;5.80;2.90;;;10.10;99.90;;;;;;5058545;28;20388;-58
2023/03/10 00:24:23;;;;;;;5.53;2.90;;;10.10;99.90;;;;;;5059120;28;20122;-61
2023/03/10 00:26:49;;;;;;;3.88;2.97;;;10.10;99.90;;;;;;5059095;28;20108;-59
2023/03/10 00:29:16;;;;;;;6.07;2.80;;;10.10;99.90;;;;;;5059032;28;20033;-58
2023/03/10 00:31:42;;;;;;;4.97;3.28;;;10.20;99.90;;;;;;5057106;28;20033;-59
2023/03/10 00:34:10;;;;;;;4.75;3.60;;;10.10;99.90;;;;;;5059547;28;20036;-59
2023/03/10 00:36:36;;;;;;;5.63;3.00;;;10.10;99.90;;;;;;5059060;28;20040;-60
2023/03/10 00:39:04;;;;;;;5.63;3.30;;;10.00;99.90;;;;;;5058748;28;20029;-59
2023/03/10 00:41:35;;;;;;;7.90;4.15;;;10.00;99.90;;;;;;5058716;28;20075;-62
2023/03/10 00:44:02;;;;;;;6.65;3.70;;;10.00;99.90;;;;;;5058752;28;20025;-60
2023/03/10 00:46:28;;;;;;;5.78;3.70;;;10.00;99.90;;;;;;5058646;28;20037;-60
2023/03/10 00:48:55;;;;;;;4.40;3.42;;;10.00;99.90;;;;;;5058623;28;20112;-60
2023/03/10 00:51:22;;;;;;;4.88;3.60;;;9.90;99.90;;;;;;5057820;28;20037;-61
2023/03/10 00:53:48;;;;;;;7.38;3.67;;;9.90;99.90;;;;;;5059182;28;20108;-59
2023/03/10 00:56:20;;;;;;;4.20;3.20;;;9.90;99.90;;;;;;5057589;28;20045;-60
2023/03/10 00:58:50;;;;;;;6.85;3.35;;;9.80;99.90;;;;;;5058496;28;20060;-60
2023/03/10 01:01:23;;;;;;;6.35;3.35;;;9.90;99.90;;;;;;5057720;28;20025;-58
2023/03/10 01:03:55;;;;;;;5.18;2.80;;;9.80;99.90;;;;;;5058449;28;20119;-59
2023/03/10 01:06:21;;;;;;;6.10;3.20;;;9.80;99.90;;;;;;5057499;28;20471;-59
2023/03/10 01:08:48;;;;;;;4.60;2.80;;;9.80;99.90;;;;;;5057542;28;20025;-59
2023/03/10 01:11:16;;;;;;;5.50;2.70;;;9.80;99.90;;;;;;5057399;28;20033;-59
2023/03/10 01:13:42;;;;;;;9.10;2.60;;;9.80;99.90;;;;;;5058196;28;20040;-61
2023/03/10 01:16:09;;;;;;;6.15;2.60;;;9.90;99.90;;;;;;5057371;28;20032;-59
2023/03/10 01:18:35;;;;;;;7.22;2.53;;;9.90;99.90;;;;;;5057959;28;20029;-59
2023/03/10 01:21:02;;;;;;;8.35;2.78;;;9.90;99.90;;;;;;5058014;28;20033;-59
2023/03/10 01:23:29;;;;;;;5.20;2.70;;;9.90;99.90;;;;;;5057233;28;20053;-59
2023/03/10 01:25:55;;;;;;;6.70;2.53;;;9.90;99.90;;;;;;5007904;28;20087;-60
2023/03/10 01:28:21;;;;;;;4.20;2.33;;;10.00;99.90;;;;;;5057802;28;20064;-60
2023/03/10 01:30:47;;;;;;;6.78;2.20;;;10.00;99.90;;;;;;5040401;28;20139;-60
2023/03/10 01:33:14;;;;;;;6.03;2.72;;;10.00;99.90;;;;;;5057810;28;20021;-60
2023/03/10 01:35:41;;;;;;;7.38;2.85;;;10.00;99.90;;;;;;5057820;28;20040;-59
2023/03/10 01:38:07;;;;;;;7.13;2.63;;;10.00;99.90;;;;;;5056961;28;20033;-60
2023/03/10 01:40:35;;;;;;;11.35;3.08;;;10.00;99.90;;;;;;5056937;28;20043;-59
2023/03/10 01:43:26;;;;;;;7.22;2.85;;;10.00;99.90;;;;;;5056618;28;20036;-61
2023/03/10 01:45:51;;;;;;;10.30;3.63;;;10.00;99.90;;;;;;5040220;28;20021;-60
2023/03/10 01:48:20;;;;;;;8.95;3.33;;;10.10;99.90;;;;;;5057444;28;20036;-60
2023/03/10 01:50:50;;;;;;;7.22;3.25;;;10.10;99.90;;;;;;5040434;28;20033;-60
2023/03/10 01:53:17;;;;;;;6.28;3.60;;;10.10;99.90;;;;;;5057487;28;20041;-60
2023/03/10 01:55:58;;;;;;;7.88;3.55;;;10.00;99.90;;;;;;5039866;28;20371;-61
2023/03/10 01:58:27;;;;;;;7.55;4.00;;;10.00;99.90;;;;;;5057237;28;20370;-60
2023/03/10 02:00:54;;;;;;;10.63;3.58;;;10.00;99.90;;;;;;5057392;28;20416;-60
2023/03/10 02:03:27;;;;;;;12.25;3.90;;;9.90;99.90;;;;;;5056368;28;20028;-62
2023/03/10 02:05:56;;;;;;;12.63;3.22;;;9.90;99.90;;;;;;5039915;28;20297;-59
2023/03/10 02:08:24;;;;;;;7.53;3.10;;;10.00;99.90;;;;;;5056376;28;20041;-62
2023/03/10 02:10:51;;;;;;;7.72;3.30;;;10.00;99.90;;;;;;5056316;28;20029;-61
2023/03/10 02:13:17;;;;;;;9.57;3.33;;;10.00;99.90;;;;;;5057240;28;20051;-59
2023/03/10 02:15:43;;;;;;;10.45;3.20;;;10.00;99.90;;;;;;5056554;28;20422;-59
2023/03/10 02:18:13;;;;;;;15.45;3.40;;;10.10;99.90;;;;;;5039756;28;20455;-59
2023/03/10 02:20:58;;;;;;;6.75;2.55;;;10.10;99.90;;;;;;5057206;28;20165;-59
2023/03/10 02:23:56;;;;;;;10.95;2.65;;;10.10;99.90;;;;;;5056983;28;20029;-59
2023/03/10 02:26:53;;;;;;;6.78;2.30;;;10.20;99.90;;;;;;5055723;28;20037;-60
2023/03/10 02:29:43;;;;;;;10.43;2.70;;;10.20;99.90;;;;;;5056872;28;20319;-60
2023/03/10 02:32:10;;;;;;;12.52;2.75;;;10.20;99.90;;;;;;5056869;28;20108;-61
2023/03/10 02:34:36;;;;;;;7.25;2.15;;;10.20;99.90;;;;;;5056809;28;20091;-60
2023/03/10 02:37:02;;;;;;;9.82;2.20;;;10.30;99.90;;;;;;5039527;28;20475;-60
2023/03/10 02:39:28;;;;;;;9.10;1.73;;;10.30;99.90;;;;;;5055954;28;20029;-60
2023/03/10 02:41:54;;;;;;;10.50;2.75;;;10.40;99.90;;;;;;5055972;28;20040;-60
2023/03/10 02:44:23;;;;;;;7.93;1.83;;;10.40;99.90;;;;;;5055954;28;20029;-60
2023/03/10 02:46:50;;;;;;;13.43;2.20;;;10.40;99.90;;;;;;5055931;28;20052;-60
2023/03/10 02:49:18;;;;;;;10.90;2.25;;;10.40;99.90;;;;;;5055908;28;20044;-61
2023/03/10 02:51:45;;;;;;;10.07;1.70;;;10.40;99.90;;;;;;5056991;28;20341;-60
2023/03/10 02:54:14;;;;;;;8.05;1.40;;;10.40;99.90;;;;;;5057287;28;20340;-60
2023/03/10 02:56:41;;;;;;;11.60;1.67;;;10.40;99.90;;;;;;5060017;28;20033;-60
2023/03/10 02:59:09;;;;;;;8.25;1.55;;;10.40;99.90;;;;;;5059837;28;20033;-59
2023/03/10 03:01:37;;;;;;;13.32;1.80;;;10.50;99.90;;;;;;5059901;28;20393;-61
2023/03/10 03:04:05;;;;;;;11.65;1.80;;;10.40;99.90;;;;;;5060981;28;20033;-60
2023/03/10 03:06:30;;;;;;;12.27;1.80;;;10.50;99.90;;;;;;5059921;28;20082;-61
2023/03/10 03:08:58;;;;;;;8.65;1.77;;;10.50;99.90;;;;;;5059808;28;20036;-61
2023/03/10 03:11:26;;;;;;;8.57;1.60;;;10.50;99.90;;;;;;5044304;28;20041;-61
2023/03/10 03:13:53;;;;;;;11.23;1.55;;;10.50;99.90;;;;;;5059707;28;20029;-61
2023/03/10 03:16:18;;;;;;;10.50;1.75;;;10.40;99.90;;;;;;5043078;28;20210;-61
2023/03/10 03:18:47;;;;;;;11.73;2.00;;;10.40;99.90;;;;;;5059517;28;20041;-60
2023/03/10 03:21:17;;;;;;;12.77;2.10;;;10.40;99.90;;;;;;5043398;28;20033;-61
2023/03/10 03:23:45;;;;;;;13.23;2.25;;;10.40;99.90;;;;;;5059485;28;20415;-60
2023/03/10 03:26:20;;;;;;;13.48;2.00;;;10.40;99.90;;;;;;5060248;28;20036;-60
2023/03/10 03:28:47;;;;;;;10.30;1.80;;;10.40;99.90;;;;;;5059471;28;20059;-61
2023/03/10 03:31:20;;;;;;;12.05;2.33;;;10.40;99.90;;;;;;5059417;28;20359;-61
2023/03/10 03:33:47;;;;;;;9.95;1.77;;;10.40;99.90;;;;;;5059387;28;20028;-61
2023/03/10 03:36:13;;;;;;;13.13;1.95;;;10.40;99.90;;;;;;5059267;28;20041;-59
2023/03/10 03:38:40;;;;;;;10.57;1.90;;;10.40;99.90;;;;;;5060230;28;20297;-61
2023/03/10 03:41:06;;;;;;;11.52;2.00;;;10.30;99.90;;;;;;5059981;28;20040;-59
2023/03/10 03:43:33;;;;;;;11.90;2.25;;;10.20;99.90;;;;;;5059072;28;20033;-59
2023/03/10 03:46:00;;;;;;;10.85;1.80;;;10.20;99.90;;;;;;5060009;28;20044;-59
2023/03/10 03:48:26;;;;;;;15.35;2.22;;;10.20;99.90;;;;;;5058955;28;20029;-59
2023/03/10 03:50:52;;;;;;;12.88;2.45;;;10.20;99.90;;;;;;5058994;28;20039;-59
2023/03/10 03:53:24;;;;;;;14.20;2.78;;;10.10;99.90;;;;;;5059034;28;20028;-59
2023/03/10 03:55:51;;;;;;;14.15;2.75;;;10.10;99.90;;;;;;5026092;28;20063;-59
2023/03/10 03:58:19;;;;;;;13.88;2.38;;;10.10;99.90;;;;;;5058756;28;20375;-59
2023/03/10 04:00:46;;;;;;;11.68;2.42;;;10.10;99.90;;;;;;5042390;28;20079;-60
2023/03/10 04:03:12;;;;;;;17.10;2.63;;;10.10;99.90;;;;;;5058904;28;20394;-59
2023/03/10 04:05:38;;;;;;;14.05;2.13;;;10.10;99.90;;;;;;5058536;28;20033;-59
2023/03/10 04:08:05;;;;;;;16.45;2.75;;;10.10;99.90;;;;;;5058652;28;20352;-59
2023/03/10 04:10:31;;;;;;;17.38;2.40;;;10.10;99.90;;;;;;5059390;28;20029;-59
2023/03/10 04:12:57;;;;;;;13.35;2.30;;;10.10;99.90;;;;;;5059452;28;20281;-59
2023/03/10 04:15:24;;;;;;;15.55;2.53;;;10.10;99.90;;;;;;5058470;28;20112;-59
2023/03/10 04:17:50;;;;;;;12.90;2.17;;;10.10;99.90;;;;;;5042022;28;20037;-59
2023/03/10 04:20:17;;;;;;;13.60;2.22;;;10.10;99.90;;;;;;5058491;28;20029;-59
2023/03/10 04:22:46;;;;;;;13.40;2.78;;;10.10;99.90;;;;;;5058475;28;20331;-59
2023/03/10 04:25:12;;;;;;;13.55;2.53;;;10.10;99.90;;;;;;5058395;28;20025;-61
2023/03/10 04:27:39;;;;;;;15.98;2.38;;;10.10;99.90;;;;;;5058461;28;20029;-59
2023/03/10 04:30:07;;;;;;;11.45;2.47;;;10.10;99.90;;;;;;5058278;28;20029;-59
2023/03/10 04:32:36;;;;;;;16.98;2.75;;;10.10;99.90;;;;;;5058228;28;20060;-58
2023/03/10 04:35:04;;;;;;;15.23;2.47;;;10.10;99.90;;;;;;5041833;28;20029;-59
2023/03/10 04:37:32;;;;;;;13.15;2.45;;;10.10;99.90;;;;;;5058139;28;20029;-59
2023/03/10 04:39:58;;;;;;;13.98;3.08;;;10.10;99.90;;;;;;5041537;28;20033;-59
2023/03/10 04:42:25;;;;;;;15.70;2.25;;;10.20;99.90;;;;;;5041474;28;20170;-59
2023/03/10 04:44:51;;;;;;;11.93;1.83;;;10.20;99.90;;;;;;5059077;28;20029;-59
2023/03/10 04:47:17;;;;;;;14.13;2.88;;;10.30;99.90;;;;;;5024943;28;20025;-59
2023/03/10 04:49:43;;;;;;;17.05;2.78;;;10.30;99.90;;;;;;5025498;28;20044;-59
2023/03/10 04:52:11;;;;;;;13.82;2.25;;;10.20;99.90;;;;;;5041660;28;20039;-59
2023/03/10 04:54:37;;;;;;;11.70;2.17;;;10.20;99.90;;;;;;5057657;28;20046;-59
2023/03/10 04:57:03;;;;;;;12.52;1.90;;;10.10;99.90;;;;;;5057792;28;20416;-59
2023/03/10 04:59:29;;;;;;;10.25;2.10;;;10.10;99.90;;;;;;5058892;28;20039;-59
2023/03/10 05:01:55;;;;;;;17.75;2.65;;;10.00;99.90;;;;;;5057619;28;20029;-59
2023/03/10 05:04:21;;;;;;;11.80;1.75;;;10.00;99.90;;;;;;5058383;28;20301;-59
2023/03/10 05:06:51;;;;;;;8.63;1.80;;;9.90;99.90;;;;;;5058318;28;20025;-59
2023/03/10 05:09:22;;;;;;;13.25;2.28;;;9.90;99.90;;;;;;5057606;28;20025;-59
2023/03/10 05:11:48;;;;;;;12.43;2.72;;;9.90;99.90;;;;;;5057440;28;20431;-59
2023/03/10 05:14:15;;;;;;;15.20;2.42;;;9.80;99.90;;;;;;5024420;28;20025;-59
2023/03/10 05:16:41;;;;;;;10.68;2.08;;;9.80;99.90;;;;;;5040249;28;20330;-59
2023/03/10 05:19:07;;;;;;;11.45;1.63;;;9.70;99.90;;;;;;5057529;28;20128;-60
2023/03/10 05:21:33;;;;;;;13.15;2.25;;;9.70;99.90;;;;;;5057981;28;20036;-60
2023/03/10 05:23:59;;;;;;;15.35;2.20;;;9.70;99.90;;;;;;5057244;28;20067;-60
2023/03/10 05:26:25;;;;;;;11.30;1.92;;;9.70;99.90;;;;;;5057159;28;20033;-60
2023/03/10 05:28:51;;;;;;;10.65;1.60;;;9.70;99.90;;;;;;5057134;28;20029;-60
2023/03/10 05:31:26;;;;;;;;;;;9.70;99.90;;;;;;5041935;28;20053;-61
2023/03/10 05:33:58;;;;;;;12.35;1.85;;;9.70;99.90;;;;;;5057163;28;19908;-60
2023/03/10 05:36:24;;;;;;;8.93;1.48;;;9.70;99.90;;;;;;5040360;28;20086;-60
2023/03/10 05:38:50;;;;;;;11.48;1.98;;;9.70;99.90;;;;;;5057603;28;20040;-60
2023/03/10 05:41:17;;;;;;;10.40;1.90;;;9.70;99.90;;;;;;5056964;28;20296;-60
2023/03/10 05:43:47;;;;;;;8.57;1.40;;;9.70;99.90;;;;;;5057517;28;20040;-60
2023/03/10 05:46:14;;;;;;;13.15;2.30;;;9.70;99.90;;;;;;5040480;28;20413;-60
2023/03/10 05:48:44;;;;;;;9.10;1.73;;;9.70;99.90;;;;;;5056739;28;20025;-62
2023/03/10 05:51:11;;;;;;;8.52;1.58;;;9.70;99.90;;;;;;5056708;28;20079;-59
2023/03/10 05:53:39;;;;;;;7.55;1.70;;;9.60;99.90;;;;;;5056613;28;20102;-59
2023/03/10 05:56:14;;;;;;;11.05;1.38;;;9.60;99.90;;;;;;5056454;28;20052;-59
2023/03/10 05:58:42;;;;;;;14.57;1.80;;;9.50;99.90;;;;;;5057476;28;20423;-60
2023/03/10 06:01:09;;;;;;;10.02;1.95;;;9.50;99.90;;;;;;5039943;28;20363;-59
2023/03/10 06:03:36;;;;;;;10.18;1.75;;;9.60;99.90;;;;;;5057228;28;20033;-60
2023/03/10 06:06:03;;;;;;;11.07;1.92;;;9.60;99.90;;;;;;5057001;28;20043;-59
2023/03/10 06:08:29;;;;;;;8.82;2.05;;;9.60;99.90;;;;;;5056349;28;20331;-59
2023/03/10 06:10:56;;;;;;;8.00;1.55;;;9.60;99.90;;;;;;5057051;28;20098;-59
2023/03/10 06:13:23;;;;;;;11.98;1.73;;;9.60;99.90;;;;;;5057037;28;20063;-59
2023/03/10 06:15:50;;;;;;;8.38;1.40;;;9.70;99.90;;;;;;5056374;28;20099;-60
2023/03/10 06:18:17;;;;;;;8.27;1.67;;;9.70;99.90;;;;;;5056300;28;20037;-60
2023/03/10 06:20:43;;;;;;;10.60;1.60;;;9.70;99.90;;;;;;5056476;28;20057;-60
2023/03/10 06:23:09;;;;;;;12.48;1.77;;;9.70;99.90;;;;;;5056352;28;20063;-60
2023/03/10 06:25:36;;;;;;;8.13;1.48;;;9.70;99.90;;;;;;5056240;28;20025;-61
2023/03/10 06:28:02;;;;;;;8.80;1.75;;;9.70;99.90;;;;;;5056297;28;20037;-60
2023/03/10 06:30:28;;;;;;;13.85;2.05;;;9.80;99.90;;;;;;5056655;28;20301;-60
2023/03/10 06:32:54;;;;;;;8.98;2.08;;;9.80;99.90;;;;;;5056802;28;20043;-60
2023/03/10 06:35:20;;;;;;;9.73;1.70;;;9.80;99.90;;;;;;5056128;28;20279;-59
2023/03/10 06:37:46;;;;;;;13.98;2.30;;;9.80;99.90;;;;;;5039325;28;20033;-60
2023/03/10 06:40:12;;;;;;;9.30;1.70;;;9.90;99.90;;;;;;5055905;28;20467;-60
2023/03/10 06:42:42;;;;;;;11.57;2.25;;;9.90;99.90;;;;;;5055675;28;20024;-60
2023/03/10 06:45:12;;;;;;;12.02;2.15;;;10.00;99.90;;;;;;5055870;28;20037;-60
2023/03/10 06:47:38;;;;;;;13.48;2.35;;;10.00;99.90;;;;;;5056113;28;20033;-60
2023/03/10 06:50:05;;;;;;;11.95;2.42;;;10.00;99.90;;;;;;5056749;28;20087;-62
2023/03/10 06:52:34;;;;;;;10.07;1.75;;;10.00;99.90;;;;;;5039516;28;20056;-59
2023/03/10 06:55:01;;;;;;;9.98;2.28;;;10.10;99.90;;;;;;5055836;28;20323;-60
2023/03/10 06:57:27;;;;;;;12.95;2.50;;;10.10;99.90;;;;;;5039559;28;20028;-60
2023/03/10 06:59:54;;;;;;;10.30;1.95;;;10.10;99.90;;;;;;5055839;28;20044;-61
2023/03/10 07:02:20;;;;;;;11.52;2.50;;;10.20;99.90;;;;;;5056809;28;20055;-60
2023/03/10 07:04:46;;;;;;;12.32;1.85;;;10.30;99.90;;;;;;5057044;28;20033;-60
2023/03/10 07:07:15;;;;;;;8.93;1.88;;;10.40;99.90;;;;;;5039286;28;20304;-60
2023/03/10 07:09:41;;;;;;;9.70;1.85;;;10.30;99.90;;;;;;5056488;28;20182;-60
2023/03/10 07:12:07;;;;;;;12.13;2.35;;;10.30;99.90;;;;;;5056396;28;20041;-60
2023/03/10 07:14:33;;;;;;;9.77;1.92;;;10.30;99.90;;;;;;5056437;28;20063;-60
2023/03/10 07:16:58;;;;;;;11.98;1.73;;;10.30;99.90;;;;;;5056505;28;20296;-61
2023/03/10 07:19:24;;;;;;;9.55;1.98;;;10.40;99.90;;;;;;5056275;28;20047;-61
2023/03/10 07:21:50;;;;;;;7.18;1.50;;;10.30;99.90;;;;;;5055654;28;20033;-60
2023/03/10 07:24:16;;;;;;;10.75;2.35;;;10.30;99.90;;;;;;5055548;28;20427;-62
2023/03/10 07:26:42;;;;;;;10.68;1.80;;;10.30;99.90;;;;;;5055719;28;20044;-60
2023/03/10 07:29:08;;;;;;;11.27;2.05;;;10.30;99.90;;;;;;5056130;28;20037;-60
2023/03/10 07:31:36;;;;;;;7.13;1.73;;;10.30;99.90;;;;;;5056955;28;20037;-61
2023/03/10 07:34:02;;;;;;;8.32;1.50;;;10.30;99.90;;;;;;5039286;28;20400;-60
2023/03/10 07:36:28;;;;;;;11.38;2.13;;;10.20;99.90;;;;;;5055500;28;20140;-61
2023/03/10 07:38:54;;;;;;;12.02;1.80;;;10.20;99.90;;;;;;5038981;28;20033;-61
2023/03/10 07:41:21;;;;;;;10.40;1.90;;;10.20;99.90;;;;;;5059043;28;20083;-59
2023/03/10 07:43:51;;;;;;;10.90;1.75;;;10.20;99.90;;;;;;5059923;28;20032;-61
2023/03/10 07:46:17;;;;;;;12.60;2.00;;;10.20;99.90;;;;;;5059072;28;20040;-61
2023/03/10 07:48:43;;;;;;;7.63;1.50;;;10.30;99.90;;;;;;5059083;28;20428;-62
2023/03/10 07:51:11;;;;;;;7.85;1.88;;;10.30;99.90;;;;;;5059107;28;20127;-61
2023/03/10 07:53:37;;;;;;;9.27;1.98;;;10.30;99.90;;;;;;5059687;28;20033;-60
2023/03/10 07:56:08;;;;;;;12.38;1.88;;;10.30;99.90;;;;;;5059662;28;20056;-60
2023/03/10 07:58:34;;;;;;;10.23;1.88;;;10.20;99.90;;;;;;5059651;28;20047;-61
2023/03/10 08:01:00;;;;;;;9.75;1.80;;;10.10;99.90;;;;;;5058967;28;20029;-60
2023/03/10 08:03:27;;;;;;;14.30;2.58;;;9.90;99.90;;;;;;5059594;28;20025;-58
2023/03/10 08:05:54;;;;;;;13.38;2.22;;;9.80;99.90;;;;;;5059570;28;20021;-58
2023/03/10 08:08:20;;;;;;;9.88;2.00;;;9.80;99.90;;;;;;5058789;28;20320;-58
2023/03/10 08:10:46;;;;;;;15.07;2.78;;;9.60;99.90;;;;;;5058663;28;20033;-58
2023/03/10 08:13:12;;;;;;;10.75;2.22;;;9.50;99.90;;;;;;5059473;28;20036;-58
2023/03/10 08:15:38;;;;;;;14.82;2.53;;;9.50;99.90;;;;;;5059661;28;20300;-60
2023/03/10 08:18:06;;;;;;;13.70;2.20;;;9.50;99.90;;;;;;5058662;28;20033;-59
2023/03/10 08:20:35;;;;;;;14.63;2.47;;;9.40;99.90;;;;;;5059465;28;20335;-59
2023/03/10 08:23:02;;;;;;;14.13;1.95;;;9.40;99.90;;;;;;5058579;28;20040;-59
2023/03/10 08:25:28;;;;;;;11.68;1.92;;;9.40;99.90;;;;;;5059162;28;20033;-59
2023/03/10 08:27:54;;;;;;;10.75;1.80;;;9.50;99.90;;;;;;5059139;28;20059;-58
2023/03/10 08:30:20;;;;;;;15.48;2.08;;;9.40;99.90;;;;;;5058967;28;20033;-58
2023/03/10 08:32:46;;;;;;;8.00;2.00;;;9.40;99.90;;;;;;5058228;28;20049;-58
2023/03/10 08:35:12;;;;;;;11.25;2.13;;;9.40;99.90;;;;;;5058890;28;20396;-58
2023/03/10 08:37:37;;;;;;;9.05;1.95;;;9.30;99.90;;;;;;5058909;28;20036;-59
2023/03/10 08:40:06;;;;;;;12.07;2.42;;;9.40;99.90;;;;;;5058821;28;20033;-59
2023/03/10 08:42:35;;;;;;;8.43;2.00;;;9.40;99.90;;;;;;5058323;28;20029;-59
2023/03/10 08:45:02;;;;;;;8.32;1.70;;;9.40;99.90;;;;;;5058668;28;20086;-59
2023/03/10 08:47:28;;;;;;;10.50;2.05;;;9.50;99.90;;;;;;5059070;28;20286;-59
2023/03/10 08:49:54;;;;;;;9.93;1.88;;;9.60;99.90;;;;;;5041340;28;20099;-58
2023/03/10 08:52:20;;;;;;;8.13;1.77;;;9.50;99.90;;;;;;5058291;28;20308;-58
2023/03/10 08:54:46;;;;;;;8.77;1.90;;;9.50;99.90;;;;;;5057711;28;20131;-59
2023/03/10 08:57:12;;;;;;;10.27;2.35;;;9.60;99.90;;;;;;5057505;28;20128;-59
2023/03/10 08:59:38;;;;;;;7.38;1.52;;;9.60;99.90;;;;;;5058269;28;20033;-58
2023/03/10 09:02:04;;;;;;;10.05;2.08;;;9.70;99.90;;;;;;5041110;28;20037;-58
2023/03/10 09:04:30;;;;;;;8.32;3.03;;;9.60;99.90;;;;;;5058415;28;20160;-59
2023/03/10 09:06:56;;;;;;;12.07;3.08;;;9.50;99.90;;;;;;5058338;28;20025;-58
2023/03/10 09:09:21;;;;;;;7.85;2.35;;;9.60;99.90;;;;;;5057692;28;20025;-59
2023/03/10 09:11:47;;;;;;;8.70;3.40;;;9.50;99.90;;;;;;5058235;28;20039;-59
2023/03/10 09:14:16;;;;;;;8.85;3.08;;;9.50;99.90;;;;;;5058484;28;20040;-59
2023/03/10 09:16:42;;;;;;;7.35;3.17;;;9.50;99.90;;;;;;5058392;28;20093;-59
2023/03/10 09:19:08;;;;;;;7.43;3.58;;;9.50;99.90;;;;;;5057957;28;20057;-59
2023/03/10 09:21:34;;;;;;;8.05;3.63;;;9.50;99.90;;;;;;5057262;28;20052;-59
2023/03/10 09:24:00;;;;;;;10.30;4.30;;;9.50;99.90;;;;;;5057997;28;20033;-57
2023/03/10 09:26:26;;;;;;;9.00;4.18;;;9.50;99.90;;;;;;5057884;28;20029;-58
2023/03/10 09:28:53;;;;;;;10.77;3.92;;;9.50;99.90;;;;;;5058479;28;20094;-57
2023/03/10 09:31:25;;;;;;;7.43;4.38;;;9.50;99.90;;;;;;5057798;28;20025;-57
2023/03/10 09:33:50;;;;;;;8.43;3.97;;;9.50;99.90;;;;;;5057846;28;20388;-58
2023/03/10 09:36:16;;;;;;;8.00;3.05;;;9.50;99.90;;;;;;5057815;28;20056;-57
2023/03/10 09:38:42;;;;;;;7.82;2.97;;;9.50;99.90;;;;;;5058246;28;20124;-57
2023/03/10 09:41:18;;;;;;;8.55;3.30;;;9.50;99.90;;;;;;5057587;28;20035;-59
2023/03/10 09:44:01;;;;;;;11.30;3.85;;;9.60;99.90;;;;;;5057740;28;20021;-57
2023/03/10 09:46:41;;;;;;;5.60;2.90;;;9.80;99.90;;;;;;5057703;28;20288;-57
2023/03/10 09:49:23;;;;;;;6.55;2.53;;;9.80;99.90;;;;;;5058174;28;20028;-58
2023/03/10 09:51:50;;;;;;;6.93;2.45;;;9.70;99.90;;;;;;5057530;28;20396;-59
2023/03/10 09:54:47;;;;;;;4.95;1.85;;;9.70;99.90;;;;;;5057091;28;20029;-59
2023/03/10 09:57:19;;;;;;;6.57;2.22;;;9.70;99.90;;;;;;5057807;28;20067;-59
2023/03/10 09:59:47;;;;;;;6.45;2.47;;;9.70;99.90;;;;;;5057724;28;20036;-59
2023/03/10 10:02:36;;;;;;;6.75;2.38;;;9.80;99.90;;;;;;5057287;28;20032;-58
2023/03/10 10:05:11;;;;;;;6.30;2.42;;;9.70;99.90;;;;;;5057188;28;20104;-59
2023/03/10 10:07:49;;;;;;;4.72;2.10;;;9.80;99.90;;;;;;5056580;28;20021;-59
2023/03/10 10:10:40;;;;;;;4.68;2.05;;;9.90;99.90;;;;;;5057432;28;20108;-58
2023/03/10 10:13:14;;;;;;;5.60;2.28;;;9.80;99.90;;;;;;5053797;28;20083;-58
2023/03/10 10:15:50;;;;;;;4.18;1.50;;;9.80;99.90;;;;;;5057243;28;20423;-59
2023/03/10 10:18:33;;;;;;;2.95;1.50;;;9.80;99.90;;;;;;5057067;28;20033;-58
2023/03/10 10:21:11;;;;;;;4.68;1.80;;;9.90;99.90;;;;;;5057178;28;20059;-58
2023/03/10 10:23:42;;;;;;;4.53;1.80;;;10.00;99.90;;;;;;5056349;28;20025;-58
2023/03/10 10:26:23;;;;;;;4.05;1.52;;;10.10;99.90;;;;;;5056994;28;20397;-58
2023/03/10 10:28:57;;;;;;;2.72;1.90;;;10.10;99.90;;;;;;5057067;28;20309;-59
2023/03/10 10:31:26;;;;;;;2.00;1.77;;;10.20;99.90;;;;;;5056240;28;20285;-57
2023/03/10 10:33:57;;;;;;;5.30;1.92;;;10.10;99.90;;;;;;5056882;28;20037;-57
2023/03/10 10:36:49;;;;;;;4.90;2.13;;;10.20;99.90;;;;;;5056803;28;20032;-57
2023/03/10 10:39:25;;;;;;;3.03;2.03;;;10.10;99.90;;;;;;5056614;28;20151;-56
2023/03/10 10:41:51;;;;;;;3.35;2.10;;;10.10;99.90;;;;;;5056786;28;20029;-57
2023/03/10 10:44:18;;;;;;;3.78;2.30;;;10.10;99.90;;;;;;5056306;28;20047;-57
2023/03/10 10:46:55;;;;;;;3.60;2.30;;;10.20;99.90;;;;;;5056757;28;20025;-56
2023/03/10 10:49:26;;;;;;;4.22;2.25;;;10.20;99.90;;;;;;5056754;28;20412;-57
2023/03/10 10:52:21;;;;;;;3.53;2.42;;;10.30;99.90;;;;;;5056775;28;20133;-58
2023/03/10 10:54:57;;;;;;;4.80;3.13;;;10.30;99.90;;;;;;5056534;28;20052;-57
2023/03/10 10:57:32;;;;;;;4.97;2.65;;;10.40;99.90;;;;;;5056713;28;20049;-58
2023/03/10 11:00:33;;;;;;;4.85;3.10;;;10.40;99.90;;;;;;5056523;28;20029;-58
2023/03/10 11:03:00;;;;;;;3.67;3.05;;;10.40;99.90;;;;;;5056283;28;20282;-58
2023/03/10 11:05:36;;;;;;;4.03;2.88;;;10.50;99.90;;;;;;5056588;28;20025;-59
2023/03/10 11:08:18;;;;;;;3.67;3.03;;;10.50;99.90;;;;;;5056589;28;20041;-58
2023/03/10 11:10:53;;;;;;;4.45;3.33;;;10.60;99.90;;;;;;5056582;28;20021;-59
2023/03/10 11:13:49;;;;;;;4.78;3.90;;;10.70;99.90;;;;;;5056585;28;20029;-59
2023/03/10 11:16:38;;;;;;;7.10;3.67;;;10.70;99.90;;;;;;5059015;28;20041;-59
2023/03/10 11:19:23;;;;;;;4.80;3.72;;;10.80;99.90;;;;;;5060193;28;20048;-62
2023/03/10 11:21:53;;;;;;;4.47;3.33;;;10.80;99.90;;;;;;5059599;28;20470;-59
2023/03/10 11:24:38;;;;;;;4.28;3.78;;;10.80;99.90;;;;;;5060063;28;20262;-60
2023/03/10 11:27:23;;;;;;;5.53;3.40;;;11.00;99.90;;;;;;5060852;28;20059;-59
2023/03/10 11:30:23;;;;;;;3.90;3.53;;;11.10;99.90;;;;;;5060277;28;20351;-59
2023/03/10 11:33:00;;;;;;;5.82;4.18;;;11.00;99.90;;;;;;5059457;28;20044;-61
2023/03/10 11:35:44;;;;;;;5.65;4.60;;;11.10;99.90;;;;;;5060173;28;20040;-59
2023/03/10 11:38:16;;;;;;;6.10;5.43;;;11.20;99.90;;;;;;5060016;28;20415;-62
2023/03/10 11:40:47;;;;;;;7.22;5.72;;;11.30;99.90;;;;;;5060083;28;20294;-59
2023/03/10 11:43:19;;;;;;;6.10;5.50;;;11.40;99.90;;;;;;5059967;28;20072;-61
2023/03/10 11:45:53;;;;;;;7.25;5.57;;;11.40;99.90;;;;;;5059984;28;20028;-60
2023/03/10 11:48:32;;;;;;;6.57;5.15;;;11.60;99.90;;;;;;5059409;28;20404;-61
2023/03/10 11:51:00;;;;;;;5.55;5.00;;;11.70;99.90;;;;;;5059157;28;20036;-60
2023/03/10 11:53:48;;;;;;;5.60;4.43;;;11.80;99.90;;;;;;5059846;28;20385;-60
2023/03/10 11:56:18;;;;;;;4.95;4.53;;;11.70;99.90;;;;;;5059579;28;20052;-61
2023/03/10 11:58:59;;;;;;;6.68;5.57;;;11.80;99.90;;;;;;5059116;28;20040;-61
2023/03/10 12:01:50;;;;;;;5.47;4.97;;;11.80;99.90;;;;;;5058892;28;20040;-62
2023/03/10 12:04:42;;;;;;;8.45;6.25;;;11.60;99.90;;;;;;5058792;28;20075;-61
2023/03/10 12:07:30;;;;;;;7.20;6.50;;;11.40;99.90;;;;;;5059697;28;20028;-60
2023/03/10 12:10:04;;;;;;;7.60;6.70;;;11.40;99.90;;;;;;5059579;28;20033;-61
2023/03/10 12:12:35;;;;;;;8.68;6.85;;;11.60;99.90;;;;;;5042080;28;20380;-61
2023/03/10 12:15:24;;;;;;;7.72;7.03;;;11.60;99.90;;;;;;5059333;28;20351;-61
2023/03/10 12:17:52;;;;;;;7.20;6.50;;;11.70;99.90;;;;;;5059102;28;20075;-61
2023/03/10 12:20:17;;;;;;;6.30;5.70;;;11.70;99.90;;;;;;5059521;28;20313;-60
2023/03/10 12:22:45;;;;;;;6.75;4.50;;;11.60;99.90;;;;;;5058545;28;20029;-62
2023/03/10 12:25:27;;;;;;;4.60;4.20;;;11.50;99.90;;;;;;5059157;28;20293;-62
2023/03/10 12:28:25;;;;;;;5.43;3.55;;;11.50;99.90;;;;;;5059157;28;20158;-60
2023/03/10 12:31:03;;;;;;;3.88;3.47;;;11.50;99.90;;;;;;5059154;28;20339;-61
2023/03/10 12:33:38;;;;;;;2.20;2.00;;;11.40;99.90;;;;;;5058317;28;20032;-61
2023/03/10 12:36:33;;;;;;;1.70;1.60;;;11.30;99.90;;;;;;5059033;28;20474;-60
2023/03/10 12:38:59;;;;;;;3.58;2.90;;;11.20;99.90;;;;;;5058703;28;20336;-61
2023/03/10 12:41:25;;;;;;;4.07;3.67;;;11.10;99.90;;;;;;5058148;28;20063;-59
2023/03/10 12:43:54;;;;;;;4.97;3.75;;;10.90;99.90;;;;;;5057946;28;20025;-64
2023/03/10 12:47:01;;;;;;;4.00;3.70;;;10.90;99.90;;;;;;5057924;28;20031;-61
2023/03/10 12:49:42;;;;;;;3.72;3.42;;;10.70;99.90;;;;;;5058361;28;20044;-61
2023/03/10 12:52:30;;;;;;;3.97;3.25;;;10.60;99.90;;;;;;5058027;28;20029;-61
2023/03/10 12:55:13;;;;;;;3.22;2.90;;;10.50;99.90;;;;;;5058438;28;20098;-63
2023/03/10 12:57:49;;;;;;;3.50;3.20;;;10.20;99.90;;;;;;5057909;28;20029;-61
2023/03/10 13:00:46;;;;;;;3.22;3.00;;;10.20;99.90;;;;;;5058488;28;20040;-63